createdAt,value
2018-08-18T00:02:01.361Z,4.80
2018-08-18T00:04:33.608Z,4.37
2018-08-18T00:07:04.086Z,8.57
2018-08-18T00:09:33.786Z,3.93
2018-08-18T00:12:03.641Z,5.43
2018-08-18T00:14:34.721Z,6.13
2018-08-18T00:17:04.834Z,5.33
2018-08-18T00:19:34.688Z,5.13
2018-08-18T00:22:04.774Z,4.13
2018-08-18T00:24:38.938Z,4.50
2018-08-18T00:27:08.690Z,4.57
2018-08-18T00:29:38.477Z,4.90
2018-08-18T00:32:08.157Z,8.00
2018-08-18T00:34:42.610Z,4.27
2018-08-18T00:37:12.330Z,5.40
2018-08-18T00:39:42.105Z,5.43
2018-08-18T00:42:11.809Z,4.23
2018-08-18T00:44:41.874Z,5.80
2018-08-18T00:47:11.717Z,4.80
2018-08-18T00:49:41.339Z,5.00
2018-08-18T00:52:11.128Z,4.47
2018-08-18T00:54:40.868Z,7.23
2018-08-18T00:57:24.024Z,4.20
2018-08-18T00:59:54.959Z,5.13
2018-08-18T01:02:24.696Z,4.23
2018-08-18T01:04:57.127Z,5.33
2018-08-18T01:07:28.773Z,8.87
2018-08-18T01:09:58.855Z,5.00
2018-08-18T01:12:29.187Z,4.53
2018-08-18T01:14:59.401Z,4.90
2018-08-18T01:17:28.943Z,4.97
2018-08-18T01:19:59.544Z,6.70
2018-08-18T01:22:29.228Z,5.17
2018-08-18T01:24:59.323Z,8.50
2018-08-18T01:27:30.064Z,5.47
2018-08-18T01:30:04.805Z,5.10
2018-08-18T01:32:35.283Z,11.00
2018-08-18T01:35:06.060Z,5.03
2018-08-18T01:37:35.692Z,6.60
2018-08-18T01:40:05.644Z,5.43
2018-08-18T01:42:35.398Z,6.33
2018-08-18T01:45:06.010Z,5.10
2018-08-18T01:47:35.777Z,5.23
2018-08-18T01:50:10.872Z,5.63
2018-08-18T01:52:40.557Z,5.50
2018-08-18T01:55:11.462Z,5.63
2018-08-18T01:57:41.224Z,5.47
2018-08-18T02:00:24.049Z,5.67
2018-08-18T02:02:53.803Z,5.43
2018-08-18T02:05:24.210Z,6.20
2018-08-18T02:07:54.072Z,4.97
2018-08-18T02:10:23.700Z,5.80
2018-08-18T02:13:08.055Z,4.63
2018-08-18T02:15:38.908Z,5.73
2018-08-18T02:18:08.592Z,7.83
2018-08-18T02:20:38.362Z,5.60
2018-08-18T02:23:08.096Z,6.87
2018-08-18T02:25:37.851Z,5.10
2018-08-18T02:28:08.964Z,5.57
2018-08-18T02:30:38.707Z,4.83
2018-08-18T02:33:08.711Z,6.37
2018-08-18T02:35:39.125Z,9.53
2018-08-18T02:38:08.853Z,5.13
2018-08-18T02:40:38.633Z,5.93
2018-08-18T02:43:19.080Z,5.87
2018-08-18T02:45:49.211Z,8.70
2018-08-18T02:48:20.915Z,6.13
2018-08-18T02:50:52.590Z,6.40
2018-08-18T02:53:27.733Z,7.87
2018-08-18T02:55:58.108Z,5.67
2018-08-18T02:58:27.636Z,6.50
2018-08-18T03:00:57.464Z,9.67
2018-08-18T03:03:27.053Z,8.90
2018-08-18T03:06:00.695Z,9.40
2018-08-18T03:08:31.181Z,6.43
2018-08-18T03:11:00.951Z,5.77
2018-08-18T03:13:30.718Z,5.00
2018-08-18T03:16:03.157Z,5.57
2018-08-18T03:18:38.137Z,5.93
2018-08-18T03:21:08.106Z,7.63
2018-08-18T03:23:37.821Z,6.17
2018-08-18T03:26:08.682Z,6.67
2018-08-18T03:28:43.211Z,6.10
2018-08-18T03:31:12.896Z,6.77
2018-08-18T03:33:42.675Z,5.43
2018-08-18T03:36:24.487Z,5.47
2018-08-18T03:38:55.697Z,6.07
2018-08-18T03:41:27.038Z,6.23
2018-08-18T03:43:57.665Z,8.20
2018-08-18T03:46:27.771Z,5.60
2018-08-18T03:48:57.498Z,6.03
2018-08-18T03:51:32.593Z,7.77
2018-08-18T03:54:03.007Z,6.40
2018-08-18T03:56:32.750Z,9.80
2018-08-18T03:59:02.554Z,5.10
2018-08-18T04:01:42.406Z,8.37
2018-08-18T04:04:13.357Z,7.17
2018-08-18T04:06:44.864Z,6.00
2018-08-18T04:09:16.239Z,5.83
2018-08-18T04:11:46.044Z,5.33
2018-08-18T04:14:17.972Z,6.50
2018-08-18T04:16:49.030Z,7.50
2018-08-18T04:19:20.702Z,6.93
2018-08-18T04:21:52.396Z,6.67
2018-08-18T04:24:22.404Z,10.10
2018-08-18T04:26:53.305Z,6.60
2018-08-18T04:29:23.129Z,12.77
2018-08-18T04:31:52.802Z,11.43
2018-08-18T04:39:15.613Z,9.57
2018-08-18T04:41:45.301Z,9.13
2018-08-18T04:44:15.135Z,9.53
2018-08-18T04:46:44.872Z,8.73
2018-08-18T04:49:14.704Z,10.70
2018-08-18T04:51:44.476Z,14.93
2018-08-18T04:54:14.101Z,8.20
2018-08-18T04:56:44.111Z,7.23
2018-08-18T04:59:13.864Z,16.10
2018-08-18T05:01:43.847Z,8.33
2018-08-18T05:04:14.258Z,8.00
2018-08-18T05:06:45.347Z,8.40
2018-08-18T05:09:15.835Z,12.60
2018-08-18T05:11:45.572Z,7.80
2018-08-18T05:14:15.284Z,8.30
2018-08-18T05:16:46.068Z,12.90
2018-08-18T05:19:15.780Z,16.47
2018-08-18T05:21:45.571Z,8.53
2018-08-18T05:24:23.930Z,10.40
2018-08-18T05:26:55.172Z,8.63
2018-08-18T05:29:24.917Z,8.90
2018-08-18T05:31:54.693Z,7.90
2018-08-18T05:34:24.538Z,8.00
2018-08-18T05:36:54.310Z,10.40
2018-08-18T05:39:24.140Z,8.33
2018-08-18T05:41:53.934Z,7.13
2018-08-18T05:44:23.690Z,7.57
2018-08-18T05:46:53.428Z,7.60
2018-08-18T05:49:24.407Z,8.60
2018-08-18T05:51:55.770Z,11.70
2018-08-18T05:54:27.918Z,9.70
2018-08-18T05:56:57.718Z,7.47
2018-08-18T05:59:27.410Z,13.17
2018-08-18T06:01:57.189Z,14.40
2018-08-18T06:04:27.379Z,12.20
2018-08-18T06:06:57.225Z,8.73
2018-08-18T06:09:27.089Z,11.33
2018-08-18T06:11:58.960Z,9.93
2018-08-18T06:14:28.968Z,11.70
2018-08-18T06:16:59.742Z,13.93
2018-08-18T06:19:29.577Z,8.30
2018-08-18T06:21:59.355Z,9.73
2018-08-18T06:24:29.268Z,8.43
2018-08-18T06:27:00.014Z,10.40
2018-08-18T06:29:29.880Z,14.03
2018-08-18T06:32:01.065Z,7.97
2018-08-18T06:34:32.514Z,20.13
2018-08-18T06:37:03.124Z,12.13
2018-08-18T06:39:47.513Z,7.60
2018-08-18T06:42:27.045Z,8.60
2018-08-18T06:44:56.911Z,7.23
2018-08-18T06:47:27.182Z,6.53
2018-08-18T06:49:56.895Z,7.03
2018-08-18T06:52:26.649Z,11.73
2018-08-18T06:54:57.275Z,7.30
2018-08-18T06:57:37.627Z,6.63
2018-08-18T07:00:10.872Z,7.87
2018-08-18T07:02:41.200Z,6.53
2018-08-18T07:05:15.370Z,7.50
2018-08-18T07:07:46.552Z,6.70
2018-08-18T07:10:33.666Z,10.83
2018-08-18T07:13:09.037Z,8.20
2018-08-18T07:15:39.957Z,8.77
2018-08-18T07:18:11.765Z,14.27
2018-08-18T07:20:42.034Z,6.97
2018-08-18T07:23:11.883Z,6.70
2018-08-18T07:25:49.048Z,7.63
2018-08-18T07:28:21.671Z,10.20
2018-08-18T07:30:51.580Z,7.03
2018-08-18T07:33:21.484Z,10.80
2018-08-18T07:35:51.196Z,22.33
2018-08-18T07:38:21.426Z,6.63
2018-08-18T07:40:53.467Z,17.37
2018-08-18T07:43:30.149Z,8.43
2018-08-18T07:46:02.692Z,4.40
2018-08-18T07:48:34.229Z,17.10
2018-08-18T07:51:04.429Z,7.83
2018-08-18T07:53:35.532Z,16.07
2018-08-18T07:56:06.037Z,6.77
2018-08-18T07:58:38.657Z,6.73
2018-08-18T08:01:09.441Z,10.27
2018-08-18T08:03:39.790Z,9.67
2018-08-18T08:06:10.420Z,4.73
2018-08-18T08:08:46.652Z,5.67
2018-08-18T08:11:17.270Z,3.33
2018-08-18T08:13:47.347Z,5.90
2018-08-18T08:16:18.147Z,3.00
2018-08-18T08:18:49.597Z,4.90
2018-08-18T08:21:20.026Z,5.80
2018-08-18T08:23:50.498Z,5.37
2018-08-18T08:26:20.651Z,9.53
2018-08-18T08:28:51.443Z,4.63
2018-08-18T08:31:21.795Z,9.23
2018-08-18T08:33:52.509Z,6.27
2018-08-18T08:36:23.249Z,3.37
2018-08-18T08:38:59.323Z,5.60
2018-08-18T08:41:31.705Z,4.53
2018-08-18T08:44:02.516Z,5.50
2018-08-18T08:46:32.938Z,7.63
2018-08-18T08:49:03.950Z,14.17
2018-08-18T08:51:34.331Z,17.73
2018-08-18T08:54:04.955Z,5.37
2018-08-18T08:56:40.115Z,4.50
2018-08-18T08:59:11.244Z,10.20
2018-08-18T09:01:41.735Z,5.40
2018-08-18T09:04:12.620Z,11.30
2018-08-18T09:06:48.576Z,12.73
2018-08-18T09:09:19.382Z,4.50
2018-08-18T09:11:50.120Z,9.60
2018-08-18T09:14:20.854Z,3.97
2018-08-18T09:16:51.513Z,3.50
2018-08-18T09:19:22.538Z,6.43
2018-08-18T09:21:56.396Z,5.60
2018-08-18T09:24:28.680Z,21.57
2018-08-18T09:27:02.568Z,24.63
2018-08-18T09:29:38.535Z,5.13
2018-08-18T09:32:09.225Z,3.03
2018-08-18T09:34:58.347Z,3.80
2018-08-18T09:37:28.923Z,4.07
2018-08-18T09:39:58.957Z,5.23
2018-08-18T09:42:29.344Z,7.10
2018-08-18T09:44:59.569Z,3.50
2018-08-18T09:47:29.974Z,4.03
2018-08-18T09:50:00.712Z,3.17
2018-08-18T09:52:31.140Z,8.53
2018-08-18T09:55:01.638Z,3.77
2018-08-18T09:57:32.602Z,3.23
2018-08-18T10:00:03.764Z,9.30
2018-08-18T10:02:34.040Z,5.67
2018-08-18T10:05:04.798Z,10.27
2018-08-18T10:07:35.801Z,4.67
2018-08-18T10:10:06.723Z,9.90
2018-08-18T10:12:36.996Z,3.37
2018-08-18T10:15:07.414Z,10.20
2018-08-18T10:17:38.922Z,7.17
2018-08-18T10:20:09.276Z,3.03
2018-08-18T10:22:40.296Z,9.43
2018-08-18T10:25:10.841Z,6.30
2018-08-18T10:27:42.147Z,5.20
2018-08-18T10:30:12.664Z,3.80
2018-08-18T10:32:48.404Z,11.23
2018-08-18T10:35:33.690Z,11.37
2018-08-18T10:38:06.244Z,5.27
2018-08-18T10:40:36.925Z,3.70
2018-08-18T10:43:07.505Z,4.77
2018-08-18T10:45:37.920Z,14.90
2018-08-18T10:48:08.835Z,5.57
2018-08-18T10:50:54.704Z,14.03
2018-08-18T10:53:24.988Z,4.07
2018-08-18T10:55:55.288Z,9.47
2018-08-18T10:58:37.171Z,3.23
2018-08-18T11:01:07.779Z,8.83
2018-08-18T11:03:37.995Z,4.00
2018-08-18T11:06:08.889Z,7.40
2018-08-18T11:08:40.393Z,4.87
2018-08-18T11:11:15.183Z,4.13
2018-08-18T11:13:45.799Z,4.47
2018-08-18T11:16:16.763Z,11.40
2018-08-18T11:18:48.408Z,27.87
2018-08-18T11:21:22.729Z,7.20
2018-08-18T11:23:57.450Z,8.03
2018-08-18T11:26:34.177Z,8.83
2018-08-18T11:29:14.123Z,4.30
2018-08-18T11:31:44.384Z,4.90
2018-08-18T11:34:14.276Z,5.30
2018-08-18T11:36:58.837Z,10.03
2018-08-18T11:39:30.443Z,7.43
2018-08-18T11:42:00.649Z,4.07
2018-08-18T11:44:30.452Z,12.70
2018-08-18T11:47:00.196Z,2.83
2018-08-18T11:49:30.611Z,8.10
2018-08-18T11:52:00.373Z,2.63
2018-08-18T11:54:30.072Z,5.50
2018-08-18T11:57:00.146Z,8.23
2018-08-18T11:59:29.862Z,10.23
2018-08-18T12:01:59.527Z,3.70
2018-08-18T12:04:29.220Z,19.27
2018-08-18T12:07:00.370Z,2.60
2018-08-18T12:09:30.969Z,2.20
2018-08-18T12:12:00.627Z,2.93
2018-08-18T12:14:31.196Z,3.07
2018-08-18T12:17:00.972Z,28.13
2018-08-18T12:19:31.352Z,6.37
2018-08-18T12:22:01.151Z,3.53
2018-08-18T12:24:30.977Z,1.30
2018-08-18T12:27:08.070Z,13.40
2018-08-18T12:29:37.888Z,2.10
2018-08-18T12:32:13.364Z,3.43
2018-08-18T12:34:43.131Z,11.90
2018-08-18T12:37:14.760Z,6.47
2018-08-18T12:39:44.906Z,19.93
2018-08-18T12:42:18.754Z,2.70
2018-08-18T12:44:48.530Z,3.47
2018-08-18T12:47:18.320Z,10.50
2018-08-18T12:49:49.162Z,6.67
2018-08-18T12:52:18.871Z,6.37
2018-08-18T12:54:48.525Z,8.07
2018-08-18T12:57:52.352Z,16.40
2018-08-18T13:00:22.189Z,7.53
2018-08-18T13:02:56.224Z,4.17
2018-08-18T13:05:27.871Z,4.30
2018-08-18T13:07:58.836Z,2.87
2018-08-18T13:10:30.122Z,18.73
2018-08-18T13:12:59.841Z,3.80
2018-08-18T13:15:29.611Z,3.30
2018-08-18T13:18:00.161Z,11.07
2018-08-18T13:20:29.869Z,5.60
2018-08-18T13:22:59.610Z,2.30
2018-08-18T13:25:30.536Z,4.87
2018-08-18T13:28:00.275Z,1.20
2018-08-18T13:30:29.969Z,1.53
2018-08-18T13:33:00.289Z,1.73
2018-08-18T13:35:30.016Z,5.40
2018-08-18T13:37:59.676Z,3.00
2018-08-18T13:40:30.021Z,3.70
2018-08-18T13:42:59.788Z,5.17
2018-08-18T13:45:43.408Z,7.03
2018-08-18T13:48:14.486Z,2.20
2018-08-18T13:50:44.294Z,8.93
2018-08-18T13:53:14.142Z,4.80
2018-08-18T13:59:41.849Z,7.17
2018-08-18T14:02:12.592Z,2.27
2018-08-18T14:04:44.195Z,2.33
2018-08-18T14:07:14.680Z,4.73
2018-08-18T14:09:50.329Z,5.20
2018-08-18T14:12:20.537Z,2.90
2018-08-18T14:14:51.131Z,9.60
2018-08-18T14:17:23.704Z,7.07
2018-08-18T14:19:53.917Z,4.03
2018-08-18T14:22:23.960Z,4.87
2018-08-18T14:24:53.761Z,2.60
2018-08-18T14:27:24.922Z,2.80
2018-08-18T14:29:54.759Z,4.20
2018-08-18T14:32:28.968Z,2.47
2018-08-18T14:35:07.887Z,8.10
2018-08-18T14:37:40.967Z,4.77
2018-08-18T14:40:18.945Z,7.67
2018-08-18T14:42:49.881Z,5.60
2018-08-18T14:45:21.058Z,4.03
2018-08-18T14:47:51.818Z,5.40
2018-08-18T14:50:28.369Z,7.07
2018-08-18T14:52:58.222Z,10.23
2018-08-18T14:55:27.887Z,5.53
2018-08-18T14:58:04.829Z,5.00
2018-08-18T15:00:34.830Z,3.27
2018-08-18T15:03:04.555Z,3.20
2018-08-18T15:05:34.286Z,12.57
2018-08-18T15:08:05.053Z,4.13
2018-08-18T15:10:41.129Z,6.13
2018-08-18T15:13:11.986Z,2.30
2018-08-18T15:15:41.897Z,6.40
2018-08-18T15:18:15.017Z,4.70
2018-08-18T15:20:45.258Z,9.17
2018-08-18T15:23:16.069Z,3.93
2018-08-18T15:25:46.692Z,2.90
2018-08-18T15:28:19.527Z,4.20
2018-08-18T15:30:51.540Z,2.80
2018-08-18T15:33:22.901Z,3.93
2018-08-18T15:35:52.660Z,14.93
2018-08-18T15:38:59.971Z,4.07
2018-08-18T15:41:29.790Z,10.33
2018-08-18T15:43:59.577Z,3.40
2018-08-18T15:46:35.077Z,3.07
2018-08-18T15:49:10.238Z,3.40
2018-08-18T15:51:40.077Z,4.13
2018-08-18T15:56:55.555Z,10.10
2018-08-18T15:59:25.266Z,28.20
2018-08-18T16:01:55.353Z,5.70
2018-08-18T16:04:25.284Z,5.40
2018-08-18T16:06:56.146Z,9.10
2018-08-18T16:09:26.116Z,13.57
2018-08-18T16:12:01.812Z,8.40
2018-08-18T16:14:31.676Z,11.03
2018-08-18T16:19:39.097Z,3.63
2018-08-18T16:22:09.384Z,4.90
2018-08-18T16:24:45.485Z,4.57
2018-08-18T16:27:15.328Z,4.50
2018-08-18T16:29:45.165Z,8.13
2018-08-18T16:32:25.314Z,5.53
2018-08-18T16:35:13.442Z,400.30
2018-08-18T16:37:45.674Z,898.90
2018-08-18T16:40:15.463Z,305.73
2018-08-18T16:42:45.478Z,436.10
2018-08-18T16:45:15.345Z,298.67
2018-08-18T16:47:52.109Z,235.63
2018-08-18T16:50:22.550Z,458.40
2018-08-18T16:52:52.441Z,237.53
2018-08-18T16:55:22.466Z,487.67
2018-08-18T16:57:52.226Z,84.57
2018-08-18T17:00:22.042Z,24.63
2018-08-18T17:02:51.829Z,12.13
2018-08-18T17:05:21.778Z,84.20
2018-08-18T17:07:51.534Z,127.17
2018-08-18T17:10:21.442Z,501.27
2018-08-18T17:12:51.248Z,194.80
2018-08-18T17:15:21.169Z,207.73
2018-08-18T17:17:50.879Z,61.47
2018-08-18T17:20:20.577Z,26.77
2018-08-18T17:22:50.312Z,69.50
2018-08-18T17:25:20.101Z,24.93
2018-08-18T17:27:49.914Z,289.83
2018-08-18T17:30:19.887Z,348.30
2018-08-18T17:32:49.589Z,88.80
2018-08-18T17:35:19.133Z,196.93
2018-08-18T17:37:48.856Z,42.77
2018-08-18T17:40:18.408Z,14.03
2018-08-18T17:42:48.288Z,9.93
2018-08-18T17:45:18.057Z,45.77
2018-08-18T17:47:55.090Z,22.50
2018-08-18T17:50:24.918Z,23.83
2018-08-18T17:52:54.708Z,10.40
2018-08-18T17:55:26.427Z,11.80
2018-08-18T17:57:56.250Z,11.80
2018-08-18T18:00:26.114Z,8.23
2018-08-18T18:02:57.404Z,7.47
2018-08-18T18:05:31.089Z,4.57
2018-08-18T18:08:03.056Z,5.97
2018-08-18T18:10:38.262Z,10.10
2018-08-18T18:13:15.545Z,8.03
2018-08-18T18:15:48.831Z,4.70
2018-08-18T18:18:19.900Z,6.73
2018-08-18T18:20:51.903Z,5.07
2018-08-18T18:23:22.230Z,4.70
2018-08-18T18:25:52.908Z,7.17
2018-08-18T18:28:22.790Z,15.23
2018-08-18T18:30:54.415Z,7.10
2018-08-18T18:33:24.176Z,4.50
2018-08-18T18:35:53.922Z,8.83
2018-08-18T18:38:23.729Z,8.83
2018-08-18T18:40:53.426Z,5.20
2018-08-18T18:43:23.361Z,10.10
2018-08-18T18:45:54.340Z,12.07
2018-08-18T18:48:24.257Z,9.77
2018-08-18T18:50:53.990Z,5.37
2018-08-18T18:53:23.905Z,5.33
2018-08-18T18:55:54.638Z,6.40
2018-08-18T18:58:24.408Z,14.13
2018-08-18T19:00:59.187Z,9.00
2018-08-18T19:03:29.005Z,6.10
2018-08-18T19:05:58.971Z,8.77
2018-08-18T19:08:28.806Z,5.90
2018-08-18T19:10:58.568Z,6.13
2018-08-18T19:13:28.722Z,6.53
2018-08-18T19:15:58.721Z,8.40
2018-08-18T19:18:28.529Z,7.20
2018-08-18T19:20:58.184Z,7.50
2018-08-18T19:23:28.214Z,5.47
2018-08-18T19:25:58.020Z,5.10
2018-08-18T19:28:27.811Z,11.83
2018-08-18T19:30:57.584Z,4.87
2018-08-18T19:33:27.378Z,7.50
2018-08-18T19:35:57.230Z,7.73
2018-08-18T19:38:26.951Z,5.90
2018-08-18T19:40:57.244Z,8.70
2018-08-18T19:43:28.147Z,10.10
2018-08-18T19:45:58.212Z,5.47
2018-08-18T19:48:28.922Z,5.57
2018-08-18T19:51:03.599Z,5.60
2018-08-18T19:53:35.583Z,5.10
2018-08-18T19:56:09.042Z,6.23
2018-08-18T19:58:38.855Z,10.37
2018-08-18T20:01:08.832Z,4.83
2018-08-18T20:03:38.714Z,5.63
2018-08-18T20:06:16.278Z,6.07
2018-08-18T20:08:46.151Z,4.57
2018-08-18T20:11:17.571Z,5.63
2018-08-18T20:13:47.291Z,5.70
2018-08-18T20:16:17.361Z,5.20
2018-08-18T20:18:47.053Z,6.70
2018-08-18T20:21:16.770Z,6.90
2018-08-18T20:23:46.653Z,6.37
2018-08-18T20:26:16.275Z,4.73
2018-08-18T20:28:45.977Z,6.17
2018-08-18T20:31:15.670Z,5.33
2018-08-18T20:33:45.632Z,5.07
2018-08-18T20:36:15.884Z,12.17
2018-08-18T20:38:46.785Z,6.90
2018-08-18T20:41:16.492Z,5.17
2018-08-18T20:43:48.700Z,10.10
2018-08-18T20:46:19.184Z,5.80
2018-08-18T20:48:48.961Z,9.73
2018-08-18T20:51:22.689Z,12.97
2018-08-18T20:53:52.439Z,5.77
2018-08-18T20:56:23.143Z,5.57
2018-08-18T20:58:52.842Z,6.17
2018-08-18T21:01:22.545Z,5.40
2018-08-18T21:03:52.342Z,5.50
2018-08-18T21:06:22.254Z,4.77
2018-08-18T21:08:52.034Z,5.50
2018-08-18T21:11:21.762Z,7.87
2018-08-18T21:13:52.428Z,6.70
2018-08-18T21:16:23.933Z,5.33
2018-08-18T21:18:53.749Z,6.40
2018-08-18T21:21:34.154Z,6.00
2018-08-18T21:24:04.247Z,6.33
2018-08-18T21:26:34.137Z,5.80
2018-08-18T21:29:03.866Z,5.63
2018-08-18T21:31:33.487Z,7.93
2018-08-18T21:34:04.289Z,6.90
2018-08-18T21:36:34.311Z,7.37
2018-08-18T21:39:07.250Z,9.67
2018-08-18T21:41:39.366Z,12.20
2018-08-18T21:44:11.172Z,7.00
2018-08-18T21:46:41.216Z,5.83
2018-08-18T21:49:11.781Z,6.13
2018-08-18T21:51:41.428Z,5.80
2018-08-18T21:54:11.145Z,5.73
2018-08-18T21:56:43.030Z,6.03
2018-08-18T21:59:14.186Z,12.60
2018-08-18T22:01:44.233Z,6.90
2018-08-18T22:04:14.008Z,17.10
2018-08-18T22:06:44.532Z,6.23
2018-08-18T22:09:24.788Z,6.37
2018-08-18T22:11:54.646Z,5.63
2018-08-18T22:14:24.512Z,6.40
2018-08-18T22:16:56.118Z,5.77
2018-08-18T22:19:26.371Z,5.93
2018-08-18T22:21:56.091Z,6.60
2018-08-18T22:24:25.894Z,5.60
2018-08-18T22:26:55.984Z,6.03
2018-08-18T22:29:27.312Z,7.57
2018-08-18T22:31:57.100Z,6.43
2018-08-18T22:34:26.852Z,6.00
2018-08-18T22:37:03.089Z,7.70
2018-08-18T22:39:32.887Z,6.37
2018-08-18T22:42:02.705Z,7.67
2018-08-18T22:44:32.419Z,5.53
2018-08-18T22:47:04.891Z,6.73
2018-08-18T22:49:34.596Z,6.53
2018-08-18T22:52:04.550Z,6.70
2018-08-18T22:54:34.245Z,6.43
2018-08-18T22:57:05.770Z,14.60
2018-08-18T22:59:35.427Z,6.27
2018-08-18T23:02:05.476Z,10.10
2018-08-18T23:04:36.870Z,11.63
2018-08-18T23:07:08.413Z,7.10
2018-08-18T23:09:38.053Z,9.00
2018-08-18T23:12:09.061Z,14.00
2018-08-18T23:14:40.787Z,6.90
2018-08-18T23:17:12.712Z,6.90
2018-08-18T23:19:42.407Z,10.90
2018-08-18T23:22:22.811Z,6.20
2018-08-18T23:24:52.460Z,7.80
2018-08-18T23:27:23.084Z,10.83
2018-08-18T23:29:52.729Z,8.17
2018-08-18T23:32:25.324Z,5.80
2018-08-18T23:34:57.589Z,7.97
2018-08-18T23:37:27.892Z,7.53
2018-08-18T23:39:58.179Z,10.90
2018-08-18T23:42:28.253Z,13.70
2018-08-18T23:44:57.996Z,7.23
2018-08-18T23:47:27.876Z,6.90
2018-08-18T23:49:57.640Z,6.90
2018-08-18T23:52:27.245Z,8.80
2018-08-18T23:54:56.889Z,6.40
2018-08-18T23:57:26.607Z,11.43
2018-08-18T23:59:56.404Z,7.20
